createdAt,value
2022-11-28T00:01:43.731Z,22.23
2022-11-28T00:04:13.165Z,21.98
2022-11-28T00:06:45.708Z,21.17
2022-11-28T00:09:14.942Z,23.20
2022-11-28T00:11:45.380Z,27.02
2022-11-28T00:14:14.201Z,24.52
2022-11-28T00:16:42.302Z,21.83
2022-11-28T00:19:12.119Z,34.10
2022-11-28T00:21:41.572Z,25.58
2022-11-28T00:24:09.831Z,32.70
2022-11-28T00:26:41.572Z,36.03
2022-11-28T00:29:10.339Z,46.80
2022-11-28T00:31:44.720Z,30.88
2022-11-28T00:34:15.348Z,32.35
2022-11-28T00:36:46.596Z,30.90
2022-11-28T00:39:16.662Z,28.45
2022-11-28T00:41:45.093Z,28.13
2022-11-28T00:44:20.093Z,23.80
2022-11-28T00:46:48.461Z,25.88
2022-11-28T00:49:16.145Z,28.75
2022-11-28T00:51:43.747Z,19.87
2022-11-28T00:54:16.924Z,23.13
2022-11-28T00:56:44.580Z,20.55
2022-11-28T00:59:19.998Z,21.13
2022-11-28T01:01:49.584Z,20.45
2022-11-28T01:04:18.054Z,21.30
2022-11-28T01:06:50.109Z,21.92
2022-11-28T01:09:22.035Z,19.88
2022-11-28T01:11:53.360Z,21.45
2022-11-28T01:14:25.343Z,21.05
2022-11-28T01:16:53.917Z,20.25
2022-11-28T01:21:49.515Z,21.30
2022-11-28T01:24:18.175Z,19.17
2022-11-28T01:26:45.965Z,21.13
2022-11-28T01:29:14.907Z,21.27
2022-11-28T01:31:43.599Z,22.45
2022-11-28T01:34:11.231Z,22.17
2022-11-28T01:36:39.158Z,22.05
2022-11-28T01:39:06.882Z,23.33
2022-11-28T01:41:34.456Z,21.63
2022-11-28T01:44:13.341Z,23.67
2022-11-28T01:46:41.845Z,23.25
